Robbins, Illinois
Current Conditions -  °F | °C
As of 3:53 PM on Sunday 23 Nov 2014 (Local Time) from KMDW Reporting Station
Light Rain Light Rain  
Wind Chill: 52°   Ceiling: 700
Heat Index: 52°   Visibility: 5mi
Dew Point: 50°   Wind: 10mph
Humidity: 93%   Direction: 140°SE
Pressure: 29.46"   Gusts: NA
Location:  41.64°N, 87.7°W
Report Text: KMDW 232153Z 14009KT 5SM -RA BR OVC007 11/10 A2946 RMK AO2 SLP977 P0007 T01110100
Loading
Personal Weather Stations






























Interactive Weather Map New forecast layout! Learn more

10-Day Weather Forecast

Advertisements
Track Severe Weather on mobile